createdAt,value
2017-09-19T00:01:10.246Z,11.80
2017-09-19T00:03:37.721Z,11.70
2017-09-19T00:06:05.185Z,11.70
2017-09-19T00:08:32.661Z,11.70
2017-09-19T00:11:00.168Z,11.60
2017-09-19T00:13:27.680Z,11.60
2017-09-19T00:15:55.243Z,11.60
2017-09-19T00:18:22.704Z,11.60
2017-09-19T00:20:50.170Z,11.60
2017-09-19T00:23:17.656Z,11.60
2017-09-19T00:25:45.128Z,11.60
2017-09-19T00:28:13.355Z,11.60
2017-09-19T00:30:40.838Z,11.50
2017-09-19T00:33:08.401Z,11.60
2017-09-19T00:35:35.873Z,11.50
2017-09-19T00:38:04.119Z,11.50
2017-09-19T00:40:31.606Z,11.40
2017-09-19T00:42:59.834Z,11.40
2017-09-19T00:45:27.316Z,11.30
2017-09-19T00:47:54.794Z,11.40
2017-09-19T00:50:23.030Z,11.30
2017-09-19T00:52:50.503Z,11.20
2017-09-19T00:55:17.989Z,11.30
2017-09-19T00:57:46.222Z,11.20
2017-09-19T01:00:13.705Z,11.20
2017-09-19T01:02:41.174Z,11.20
2017-09-19T01:05:09.423Z,11.20
2017-09-19T01:07:36.989Z,11.10
2017-09-19T01:10:04.461Z,11.20
2017-09-19T01:12:32.720Z,11.10
2017-09-19T01:15:00.282Z,11.10
2017-09-19T01:17:27.793Z,11.10
2017-09-19T01:19:55.263Z,11.10
2017-09-19T01:22:22.729Z,11.10
2017-09-19T01:24:50.209Z,11.10
2017-09-19T01:27:17.678Z,11.00
2017-09-19T01:29:45.945Z,11.00
2017-09-19T01:32:13.409Z,10.90
2017-09-19T01:34:41.677Z,11.00
2017-09-19T01:37:09.241Z,11.00
2017-09-19T01:39:40.242Z,11.00
2017-09-19T01:42:07.718Z,11.00
2017-09-19T01:44:35.196Z,10.90
2017-09-19T01:47:03.424Z,10.90
2017-09-19T01:49:30.923Z,10.90
2017-09-19T01:51:58.636Z,11.00
2017-09-19T01:54:26.081Z,11.00
2017-09-19T01:56:53.561Z,10.90
2017-09-19T01:59:21.021Z,10.80
2017-09-19T02:01:48.488Z,10.80
2017-09-19T02:04:15.950Z,10.70
2017-09-19T02:06:43.424Z,10.70
2017-09-19T02:09:10.886Z,10.70
2017-09-19T02:11:38.491Z,10.70
2017-09-19T02:14:06.005Z,10.70
2017-09-19T02:16:33.462Z,10.70
2017-09-19T02:19:01.064Z,10.70
2017-09-19T02:21:28.515Z,10.70
2017-09-19T02:23:55.985Z,10.60
2017-09-19T02:26:23.447Z,10.60
2017-09-19T02:28:50.917Z,10.60
2017-09-19T02:31:18.377Z,10.60
2017-09-19T02:33:45.849Z,10.60
2017-09-19T02:36:13.313Z,10.60
2017-09-19T02:38:41.562Z,10.60
2017-09-19T02:41:09.035Z,10.50
2017-09-19T02:43:36.593Z,10.60
2017-09-19T02:46:04.208Z,10.50
2017-09-19T02:48:31.676Z,10.50
2017-09-19T02:50:59.141Z,10.50
2017-09-19T02:53:26.603Z,10.40
2017-09-19T02:55:54.108Z,10.50
2017-09-19T02:58:22.345Z,10.40
2017-09-19T03:00:49.829Z,10.40
2017-09-19T03:03:18.144Z,10.40
2017-09-19T03:05:45.645Z,10.40
2017-09-19T03:08:13.201Z,10.40
2017-09-19T03:10:40.681Z,10.40
2017-09-19T03:13:08.912Z,10.40
2017-09-19T03:15:36.394Z,10.30
2017-09-19T03:18:03.848Z,10.40
2017-09-19T03:20:31.318Z,10.40
2017-09-19T03:22:59.553Z,10.30
2017-09-19T03:25:27.018Z,10.30
2017-09-19T03:27:54.472Z,10.30
2017-09-19T03:30:21.952Z,10.30
2017-09-19T03:32:49.414Z,10.30
2017-09-19T03:35:16.886Z,10.30
2017-09-19T03:37:45.143Z,10.20
2017-09-19T03:40:12.609Z,10.20
2017-09-19T03:42:40.157Z,10.20
2017-09-19T03:45:07.620Z,10.30
2017-09-19T03:47:35.081Z,10.20
2017-09-19T03:50:02.630Z,10.20
2017-09-19T03:52:30.089Z,10.10
2017-09-19T03:54:57.726Z,10.10
2017-09-19T03:57:25.185Z,10.00
2017-09-19T03:59:52.657Z,10.00
2017-09-19T04:02:20.121Z,10.00
2017-09-19T04:04:47.683Z,10.00
2017-09-19T04:07:15.138Z,9.90
2017-09-19T04:09:42.687Z,9.90
2017-09-19T04:12:10.149Z,9.90
2017-09-19T04:14:37.758Z,9.90
2017-09-19T04:17:05.220Z,9.90
2017-09-19T04:19:32.723Z,9.90
2017-09-19T04:22:00.274Z,9.80
2017-09-19T04:24:27.746Z,9.80
2017-09-19T04:26:56.109Z,9.70
2017-09-19T04:29:23.726Z,9.70
2017-09-19T04:31:51.185Z,9.70
2017-09-19T04:34:18.634Z,9.60
2017-09-19T04:36:46.097Z,9.60
2017-09-19T04:39:13.549Z,9.70
2017-09-19T04:41:41.017Z,9.70
2017-09-19T04:44:08.487Z,9.70
2017-09-19T04:46:35.958Z,9.70
2017-09-19T04:49:03.526Z,9.70
2017-09-19T04:51:31.757Z,9.70
2017-09-19T04:53:59.373Z,9.70
2017-09-19T04:56:27.633Z,9.80
2017-09-19T04:58:55.190Z,9.70
2017-09-19T05:01:24.954Z,9.70
2017-09-19T05:03:52.421Z,9.70
2017-09-19T05:06:20.056Z,9.80
2017-09-19T05:08:48.292Z,10.00
2017-09-19T05:11:15.761Z,9.90
2017-09-19T05:13:43.325Z,10.00
2017-09-19T05:16:10.952Z,10.00
2017-09-19T05:18:38.417Z,10.00
2017-09-19T05:21:05.887Z,10.00
2017-09-19T05:23:33.399Z,9.90
2017-09-19T05:26:00.902Z,9.80
2017-09-19T05:28:28.368Z,9.80
2017-09-19T05:30:55.844Z,9.80
2017-09-19T05:33:24.088Z,9.80
2017-09-19T05:35:51.556Z,9.70
2017-09-19T05:38:19.100Z,9.80
2017-09-19T05:40:46.563Z,9.90
2017-09-19T05:43:14.113Z,9.90
2017-09-19T05:45:41.579Z,9.90
2017-09-19T05:48:09.140Z,9.90
2017-09-19T05:50:36.605Z,9.90
2017-09-19T05:53:10.966Z,9.90
2017-09-19T05:55:38.523Z,9.80
2017-09-19T05:58:05.978Z,9.90
2017-09-19T06:00:33.461Z,9.90
2017-09-19T06:03:00.938Z,10.00
2017-09-19T06:05:28.415Z,10.00
2017-09-19T06:07:56.778Z,9.90
2017-09-19T06:10:24.256Z,9.90
2017-09-19T06:12:52.492Z,9.90
2017-09-19T06:15:20.064Z,9.80
2017-09-19T06:17:47.625Z,10.00
2017-09-19T06:20:15.110Z,10.00
2017-09-19T06:22:42.590Z,9.90
2017-09-19T06:25:10.097Z,10.00
2017-09-19T06:27:37.648Z,10.00
2017-09-19T06:30:05.141Z,10.10
2017-09-19T06:32:33.369Z,10.20
2017-09-19T06:35:00.899Z,10.10
2017-09-19T06:37:28.369Z,10.20
2017-09-19T06:39:55.856Z,10.30
2017-09-19T06:42:23.328Z,10.30
2017-09-19T06:44:50.827Z,10.40
2017-09-19T06:47:18.301Z,10.50
2017-09-19T06:49:45.772Z,10.60
2017-09-19T06:52:13.266Z,10.60
2017-09-19T06:54:41.518Z,10.90
2017-09-19T06:57:09.030Z,10.80
2017-09-19T06:59:36.496Z,11.10
2017-09-19T07:02:03.972Z,11.30
2017-09-19T07:04:31.438Z,11.30
2017-09-19T07:06:59.001Z,11.40
2017-09-19T07:09:26.621Z,11.60
2017-09-19T07:11:54.094Z,11.70
2017-09-19T07:14:21.575Z,11.80
2017-09-19T07:16:49.044Z,12.00
2017-09-19T07:19:17.312Z,12.10
2017-09-19T07:21:44.789Z,12.00
2017-09-19T07:24:13.040Z,12.20
2017-09-19T07:26:40.519Z,12.10
2017-09-19T07:29:08.777Z,12.40
2017-09-19T07:31:36.277Z,12.30
2017-09-19T07:34:03.745Z,12.60
2017-09-19T07:36:31.226Z,12.80
2017-09-19T07:38:58.818Z,12.80
2017-09-19T07:41:27.080Z,13.10
2017-09-19T07:43:54.553Z,13.00
2017-09-19T07:46:22.794Z,13.00
2017-09-19T07:48:50.278Z,12.90
2017-09-19T07:51:18.553Z,13.20
2017-09-19T07:53:46.026Z,13.20
2017-09-19T07:56:14.335Z,13.40
2017-09-19T07:58:41.804Z,13.40
2017-09-19T08:01:09.346Z,13.50
2017-09-19T08:03:36.818Z,13.60
2017-09-19T08:06:04.324Z,13.50
2017-09-19T08:08:32.565Z,13.70
2017-09-19T08:11:00.196Z,13.70
2017-09-19T08:13:27.665Z,13.70
2017-09-19T08:15:55.211Z,13.70
2017-09-19T08:18:22.683Z,13.80
2017-09-19T08:20:50.174Z,13.90
2017-09-19T08:23:17.731Z,14.00
2017-09-19T08:25:45.201Z,14.00
2017-09-19T08:28:13.476Z,14.20
2017-09-19T08:30:41.728Z,14.20
2017-09-19T08:33:09.198Z,14.10
2017-09-19T08:35:36.797Z,14.30
2017-09-19T08:38:04.288Z,14.50
2017-09-19T08:40:31.767Z,14.50
2017-09-19T08:42:59.227Z,14.70
2017-09-19T08:45:26.692Z,14.90
2017-09-19T08:47:54.959Z,15.00
2017-09-19T08:50:22.421Z,15.00
2017-09-19T08:52:49.922Z,15.10
2017-09-19T08:55:17.484Z,15.00
2017-09-19T08:57:44.976Z,15.00
2017-09-19T09:00:13.273Z,15.30
2017-09-19T09:02:41.542Z,15.70
2017-09-19T09:05:09.809Z,16.00
2017-09-19T09:07:37.373Z,15.90
2017-09-19T09:10:04.837Z,16.00
2017-09-19T09:12:33.110Z,16.10
2017-09-19T09:15:00.582Z,16.10
2017-09-19T09:17:28.828Z,16.10
2017-09-19T09:19:56.409Z,16.10
2017-09-19T09:22:23.878Z,16.20
2017-09-19T09:24:51.341Z,16.40
2017-09-19T09:27:18.807Z,16.70
2017-09-19T09:29:46.322Z,16.70
2017-09-19T09:32:13.794Z,16.90
2017-09-19T09:34:42.013Z,17.00
2017-09-19T09:37:09.480Z,16.90
2017-09-19T09:39:36.940Z,17.00
2017-09-19T09:42:04.399Z,17.10
2017-09-19T09:44:31.852Z,17.10
2017-09-19T09:46:59.322Z,17.00
2017-09-19T09:49:26.804Z,16.80
2017-09-19T09:51:54.270Z,16.60
2017-09-19T09:54:22.503Z,16.30
2017-09-19T09:56:49.974Z,16.20
2017-09-19T09:59:17.512Z,16.10
2017-09-19T10:01:45.104Z,16.00
2017-09-19T10:04:12.555Z,16.20
2017-09-19T10:06:40.131Z,16.30
2017-09-19T10:09:08.373Z,16.60
2017-09-19T10:11:35.842Z,16.60
2017-09-19T10:14:03.395Z,16.80
2017-09-19T10:16:30.917Z,17.10
2017-09-19T10:18:58.402Z,17.20
2017-09-19T10:21:25.858Z,17.40
2017-09-19T10:23:53.325Z,17.70
2017-09-19T10:26:20.780Z,17.50
2017-09-19T10:28:48.250Z,17.20
2017-09-19T10:31:16.607Z,17.20
2017-09-19T10:33:44.102Z,17.10
2017-09-19T10:36:12.354Z,17.10
2017-09-19T10:38:39.913Z,17.10
2017-09-19T10:41:07.382Z,17.30
2017-09-19T10:43:34.841Z,17.50
2017-09-19T10:46:02.317Z,17.50
2017-09-19T10:48:29.786Z,17.70
2017-09-19T10:50:57.291Z,17.90
2017-09-19T10:53:24.816Z,18.20
2017-09-19T10:55:52.273Z,18.40
2017-09-19T10:58:19.747Z,18.20
2017-09-19T11:00:47.271Z,18.70
2017-09-19T11:03:15.506Z,19.40
2017-09-19T11:05:42.970Z,19.40
2017-09-19T11:08:10.443Z,19.60
2017-09-19T11:10:38.675Z,20.70
2017-09-19T11:13:06.146Z,20.70
2017-09-19T11:15:35.142Z,20.00
2017-09-19T11:18:02.783Z,20.00
2017-09-19T11:20:30.229Z,19.30
2017-09-19T11:22:57.689Z,18.50
2017-09-19T11:25:25.168Z,18.10
2017-09-19T11:27:52.623Z,17.80
2017-09-19T11:30:20.882Z,17.90
2017-09-19T11:32:48.429Z,18.70
2017-09-19T11:35:15.899Z,19.50
2017-09-19T11:37:43.348Z,19.50
2017-09-19T11:40:10.838Z,19.30
2017-09-19T11:42:39.083Z,18.40
2017-09-19T11:45:06.565Z,18.30
2017-09-19T11:47:34.025Z,18.60
2017-09-19T11:50:02.253Z,19.40
2017-09-19T11:52:29.725Z,19.40
2017-09-19T11:54:57.185Z,19.20
2017-09-19T11:57:24.662Z,18.90
2017-09-19T11:59:52.230Z,18.50
2017-09-19T12:02:19.689Z,18.40
2017-09-19T12:04:47.143Z,18.20
2017-09-19T12:07:14.693Z,18.10
2017-09-19T12:09:42.161Z,18.40
2017-09-19T12:12:09.614Z,18.90
2017-09-19T12:14:37.877Z,19.30
2017-09-19T12:17:06.120Z,19.20
2017-09-19T12:19:33.611Z,19.10
2017-09-19T12:22:01.069Z,19.00
2017-09-19T12:24:29.323Z,18.90
2017-09-19T12:26:56.795Z,18.90
2017-09-19T12:29:24.306Z,18.90
2017-09-19T12:31:51.815Z,18.90
2017-09-19T12:34:19.383Z,19.10
2017-09-19T12:36:47.623Z,19.60
2017-09-19T12:39:15.090Z,19.50
2017-09-19T12:41:42.657Z,19.60
2017-09-19T12:44:10.225Z,19.50
2017-09-19T12:46:37.773Z,19.50
2017-09-19T12:49:05.242Z,19.50
2017-09-19T12:51:32.735Z,19.20
2017-09-19T12:54:00.255Z,19.00
2017-09-19T12:56:28.587Z,18.50
2017-09-19T12:58:56.060Z,18.50
2017-09-19T13:01:23.704Z,18.60
2017-09-19T13:03:51.163Z,18.60
2017-09-19T13:06:18.620Z,18.70
2017-09-19T13:08:46.126Z,18.80
2017-09-19T13:11:14.396Z,18.80
2017-09-19T13:13:42.630Z,18.90
2017-09-19T13:16:10.184Z,18.80
2017-09-19T13:18:37.650Z,18.90
2017-09-19T13:21:05.108Z,18.80
2017-09-19T13:23:32.587Z,18.60
2017-09-19T13:26:00.061Z,18.40
2017-09-19T13:28:28.387Z,18.40
2017-09-19T13:31:07.841Z,18.30
2017-09-19T13:33:47.124Z,18.60
2017-09-19T13:36:15.385Z,18.60
2017-09-19T13:38:42.850Z,18.60
2017-09-19T13:41:10.495Z,18.40
2017-09-19T13:43:37.955Z,18.30
2017-09-19T13:46:05.404Z,18.30
2017-09-19T13:48:32.906Z,18.40
2017-09-19T13:51:00.373Z,18.30
2017-09-19T13:53:27.841Z,18.20
2017-09-19T13:55:55.302Z,18.20
2017-09-19T13:58:22.794Z,18.20
2017-09-19T14:00:51.072Z,18.30
2017-09-19T14:03:18.622Z,18.20
2017-09-19T14:05:46.088Z,18.30
2017-09-19T14:08:13.553Z,18.30
2017-09-19T14:10:41.113Z,18.40
2017-09-19T14:13:08.577Z,18.60
2017-09-19T14:15:36.843Z,18.70
2017-09-19T14:18:04.302Z,18.70
2017-09-19T14:20:31.789Z,18.90
2017-09-19T14:22:59.241Z,18.80
2017-09-19T14:25:26.701Z,18.70
2017-09-19T14:27:54.219Z,18.60
2017-09-19T14:30:21.672Z,18.80
2017-09-19T14:32:49.230Z,19.40
2017-09-19T14:35:18.207Z,20.70
2017-09-19T14:37:45.783Z,20.70
2017-09-19T14:40:13.249Z,21.00
2017-09-19T14:42:40.713Z,21.20
2017-09-19T14:45:08.933Z,20.20
2017-09-19T14:47:36.417Z,20.20
2017-09-19T14:50:03.880Z,19.60
2017-09-19T14:52:31.343Z,19.10
2017-09-19T14:54:58.818Z,18.90
2017-09-19T14:57:27.036Z,18.60
2017-09-19T14:59:54.509Z,18.60
2017-09-19T15:02:21.969Z,18.60
2017-09-19T15:04:49.434Z,18.60
2017-09-19T15:07:16.907Z,18.60
2017-09-19T15:09:44.395Z,18.60
2017-09-19T15:12:11.845Z,18.60
2017-09-19T15:14:39.296Z,18.60
2017-09-19T15:17:07.531Z,18.50
2017-09-19T15:19:35.034Z,18.50
2017-09-19T15:22:02.512Z,18.50
2017-09-19T15:24:29.969Z,18.50
2017-09-19T15:26:57.450Z,18.30
2017-09-19T15:29:24.902Z,18.20
2017-09-19T15:31:52.385Z,18.00
2017-09-19T15:34:19.841Z,17.90
2017-09-19T15:36:47.308Z,17.90
2017-09-19T15:39:14.774Z,17.80
2017-09-19T15:41:42.997Z,17.60
2017-09-19T15:44:10.459Z,17.60
2017-09-19T15:46:37.910Z,17.60
2017-09-19T15:49:05.378Z,17.60
2017-09-19T15:51:33.610Z,17.70
2017-09-19T15:54:01.094Z,17.70
2017-09-19T15:56:28.562Z,17.70
2017-09-19T15:58:56.049Z,17.70
2017-09-19T16:01:23.519Z,17.70
2017-09-19T16:03:51.754Z,17.70
2017-09-19T16:06:19.233Z,17.70
2017-09-19T16:08:46.693Z,17.70
2017-09-19T16:11:14.159Z,17.70
2017-09-19T16:13:42.385Z,17.70
2017-09-19T16:16:09.849Z,17.70
2017-09-19T16:18:37.330Z,17.70
2017-09-19T16:21:04.831Z,17.70
2017-09-19T16:23:32.298Z,17.70
2017-09-19T16:25:59.782Z,17.60
2017-09-19T16:28:27.217Z,17.50
2017-09-19T16:30:54.673Z,17.40
2017-09-19T16:33:22.138Z,17.30
2017-09-19T16:35:49.625Z,17.30
2017-09-19T16:38:17.102Z,17.30
2017-09-19T16:40:45.364Z,17.20
2017-09-19T16:43:12.828Z,17.10
2017-09-19T16:45:40.290Z,17.10
2017-09-19T16:48:08.515Z,17.00
2017-09-19T16:50:35.994Z,17.00
2017-09-19T16:53:03.564Z,17.00
2017-09-19T16:55:31.126Z,17.00
2017-09-19T16:57:59.365Z,17.00
2017-09-19T17:00:26.842Z,17.00
2017-09-19T17:02:54.413Z,17.00
2017-09-19T17:05:21.910Z,17.00
2017-09-19T17:07:49.438Z,16.90
2017-09-19T17:10:17.666Z,16.80
2017-09-19T17:12:45.158Z,16.80
2017-09-19T17:15:12.725Z,16.80
2017-09-19T17:17:40.282Z,16.80
2017-09-19T17:20:09.261Z,16.70
2017-09-19T17:22:36.839Z,16.70
2017-09-19T17:25:05.118Z,16.80
2017-09-19T17:27:33.366Z,16.80
2017-09-19T17:30:00.849Z,16.70
2017-09-19T17:32:28.348Z,16.80
2017-09-19T17:34:55.809Z,16.70
2017-09-19T17:37:23.326Z,16.80
2017-09-19T17:39:51.562Z,16.70
2017-09-19T17:42:19.040Z,16.70
2017-09-19T17:44:47.279Z,16.70
2017-09-19T17:47:14.777Z,16.60
2017-09-19T17:49:43.750Z,16.60
2017-09-19T17:52:11.227Z,16.60
2017-09-19T17:54:39.467Z,16.70
2017-09-19T17:57:06.941Z,16.70
2017-09-19T17:59:34.417Z,16.70
2017-09-19T18:02:02.126Z,16.70
2017-09-19T18:04:29.630Z,16.70
2017-09-19T18:06:57.107Z,16.70
2017-09-19T18:09:25.329Z,16.60
2017-09-19T18:11:52.871Z,16.60
2017-09-19T18:14:20.374Z,16.60
2017-09-19T18:16:47.962Z,16.80
2017-09-19T18:19:16.193Z,16.70
2017-09-19T18:21:43.669Z,16.60
2017-09-19T18:24:11.918Z,16.50
2017-09-19T18:26:39.406Z,16.50
2017-09-19T18:29:06.886Z,16.50
2017-09-19T18:31:35.109Z,16.40
2017-09-19T18:34:02.643Z,16.40
2017-09-19T18:36:30.107Z,16.40
2017-09-19T18:38:57.618Z,16.40
2017-09-19T18:41:25.857Z,16.30
2017-09-19T18:43:53.321Z,16.30
2017-09-19T18:46:20.798Z,16.30
2017-09-19T18:48:48.257Z,16.30
2017-09-19T18:51:15.773Z,16.30
2017-09-19T18:53:43.239Z,16.20
2017-09-19T18:56:10.700Z,16.30
2017-09-19T18:58:38.264Z,16.20
2017-09-19T19:03:38.192Z,16.20
2017-09-19T19:06:05.661Z,16.20
2017-09-19T19:08:33.116Z,16.20
2017-09-19T19:11:00.632Z,16.10
2017-09-19T19:13:28.134Z,16.10
2017-09-19T19:15:55.603Z,16.10
2017-09-19T19:18:23.847Z,16.00
2017-09-19T19:20:51.313Z,16.00
2017-09-19T19:23:18.787Z,16.00
2017-09-19T19:25:46.251Z,16.00
2017-09-19T19:28:14.480Z,16.00
2017-09-19T19:30:41.954Z,16.00
2017-09-19T19:33:09.422Z,16.00
2017-09-19T19:35:37.655Z,16.00
2017-09-19T19:38:05.181Z,15.90
2017-09-19T19:40:33.432Z,16.00
2017-09-19T19:43:00.907Z,15.90
2017-09-19T19:45:29.169Z,15.90
2017-09-19T19:47:56.887Z,15.90
2017-09-19T19:50:25.014Z,15.90
2017-09-19T19:52:52.552Z,15.80
2017-09-19T19:55:20.009Z,15.80
2017-09-19T19:57:47.525Z,15.80
2017-09-19T20:00:15.001Z,15.70
2017-09-19T20:02:42.474Z,15.70
2017-09-19T20:05:09.945Z,15.60
2017-09-19T20:07:37.425Z,15.50
2017-09-19T20:10:05.669Z,15.40
2017-09-19T20:12:33.153Z,15.40
2017-09-19T20:15:01.427Z,15.30
2017-09-19T20:17:29.691Z,15.20
2017-09-19T20:19:57.165Z,15.20
2017-09-19T20:22:25.409Z,15.10
2017-09-19T20:24:52.873Z,15.00
2017-09-19T20:27:20.340Z,15.00
2017-09-19T20:29:48.573Z,14.90
2017-09-19T20:32:16.047Z,14.80
2017-09-19T20:34:43.510Z,14.80
2017-09-19T20:37:11.763Z,14.80
2017-09-19T20:39:39.226Z,14.80
2017-09-19T20:42:06.806Z,14.80
2017-09-19T20:44:35.786Z,14.70
2017-09-19T20:47:03.250Z,14.70
2017-09-19T20:49:30.818Z,14.70
2017-09-19T20:51:58.273Z,14.60
2017-09-19T20:54:25.822Z,14.60
2017-09-19T20:56:53.397Z,14.60
2017-09-19T20:59:21.627Z,14.50
2017-09-19T21:01:49.182Z,14.50
2017-09-19T21:04:22.253Z,14.40
2017-09-19T21:06:55.348Z,14.40
2017-09-19T21:09:28.545Z,14.30
2017-09-19T21:12:01.762Z,14.30
2017-09-19T21:14:35.032Z,14.30
2017-09-19T21:17:08.195Z,14.30
2017-09-19T21:19:35.168Z,14.20
2017-09-19T21:22:02.648Z,14.20
2017-09-19T21:24:30.219Z,14.20
2017-09-19T21:26:57.743Z,14.20
2017-09-19T21:29:25.209Z,14.20
2017-09-19T21:31:52.678Z,14.20
2017-09-19T21:34:20.262Z,14.20
2017-09-19T21:36:47.721Z,14.10
2017-09-19T21:39:15.257Z,14.10
2017-09-19T21:41:42.718Z,14.10
2017-09-19T21:44:10.283Z,14.00
2017-09-19T21:46:37.837Z,14.00
2017-09-19T21:49:05.393Z,14.00
2017-09-19T21:51:32.849Z,13.90
2017-09-19T21:54:00.418Z,13.90
2017-09-19T21:56:27.886Z,13.90
2017-09-19T21:58:55.387Z,13.90
2017-09-19T22:01:22.860Z,13.80
2017-09-19T22:03:50.332Z,13.80
2017-09-19T22:06:17.913Z,13.80
2017-09-19T22:08:46.185Z,13.80
2017-09-19T22:11:13.736Z,13.70
2017-09-19T22:13:41.192Z,13.70
2017-09-19T22:16:08.679Z,13.70
2017-09-19T22:18:36.922Z,13.60
2017-09-19T22:21:04.389Z,13.50
2017-09-19T22:23:31.893Z,13.60
2017-09-19T22:25:59.405Z,13.50
2017-09-19T22:28:27.002Z,13.50
2017-09-19T22:30:54.479Z,13.50
2017-09-19T22:33:21.945Z,13.50
2017-09-19T22:35:49.425Z,13.40
2017-09-19T22:38:16.981Z,13.40
2017-09-19T22:40:44.460Z,13.40
2017-09-19T22:43:12.720Z,13.30
2017-09-19T22:45:40.194Z,13.20
2017-09-19T22:48:08.466Z,13.20
2017-09-19T22:50:36.680Z,13.20
2017-09-19T22:53:04.193Z,13.20
2017-09-19T22:55:32.431Z,13.10
2017-09-19T22:57:59.904Z,13.10
2017-09-19T23:00:27.482Z,13.10
2017-09-19T23:02:55.089Z,13.00
2017-09-19T23:05:22.573Z,13.00
2017-09-19T23:07:50.137Z,13.00
2017-09-19T23:10:19.104Z,12.90
2017-09-19T23:12:46.586Z,12.90
2017-09-19T23:15:14.147Z,13.00
2017-09-19T23:17:41.722Z,12.90
2017-09-19T23:20:09.227Z,12.90
2017-09-19T23:22:36.702Z,12.90
2017-09-19T23:25:04.198Z,12.90
2017-09-19T23:27:31.669Z,12.80
2017-09-19T23:29:59.934Z,12.70
2017-09-19T23:32:28.179Z,12.70
2017-09-19T23:34:55.766Z,12.70
2017-09-19T23:37:23.250Z,12.70
2017-09-19T23:39:50.738Z,12.70
2017-09-19T23:42:18.231Z,12.70
2017-09-19T23:44:45.791Z,12.70
2017-09-19T23:47:14.023Z,12.60
2017-09-19T23:49:41.612Z,12.60
2017-09-19T23:52:09.176Z,12.60
2017-09-19T23:54:36.674Z,12.60
2017-09-19T23:57:04.191Z,12.60
2017-09-19T23:59:31.755Z,12.50
